Jefferson, Colorado
Current Conditions -  °F | °C
As of 10:17 AM on Saturday 25 Oct 2014 (Local Time) from KCCU Reporting Station
Clear Clear  
Wind Chill: 54°   Ceiling: Unl
Heat Index: 54°   Visibility: 10mi
Dew Point: -8°   Wind: 12mph
Humidity: 8%   Direction: 180°S
Pressure: 30.64"   Gusts: 16mph
Location:  39.38°N, 105.8°W
Report Text: KCCU 251617Z AUTO 18010G14KT 10SM CLR 12/M22 A3064 RMK AO2
Loading
Personal Weather Stations






























Interactive Weather Map
Tropical Storm Tracking
New forecast layout! Learn more

10-Day Weather Forecast

Advertisements
Track Severe Weather on mobile